createdAt,value
2019-05-25T00:01:36.799Z,12.30
2019-05-25T00:04:07.353Z,12.03
2019-05-25T00:06:37.841Z,14.73
2019-05-25T00:09:08.651Z,14.90
2019-05-25T00:11:39.206Z,15.93
2019-05-25T00:14:09.987Z,18.67
2019-05-25T00:16:40.518Z,17.53
2019-05-25T00:19:10.985Z,23.17
2019-05-25T00:21:41.744Z,20.73
2019-05-25T00:24:12.976Z,21.90
2019-05-25T00:26:43.854Z,22.80
2019-05-25T00:29:14.383Z,19.90
2019-05-25T00:31:45.179Z,20.50
2019-05-25T00:34:15.855Z,22.63
2019-05-25T00:36:47.117Z,21.40
2019-05-25T00:39:18.024Z,18.57
2019-05-25T00:41:48.806Z,20.10
2019-05-25T00:44:19.224Z,19.20
2019-05-25T00:46:50.224Z,19.13
2019-05-25T00:49:20.642Z,18.13
2019-05-25T00:51:51.056Z,15.37
2019-05-25T00:54:27.803Z,18.30
2019-05-25T00:56:54.150Z,19.50
2019-05-25T00:59:24.659Z,16.60
2019-05-25T01:01:55.583Z,17.70
2019-05-25T01:04:26.123Z,16.43
2019-05-25T01:06:57.159Z,14.43
2019-05-25T01:09:27.662Z,14.30
2019-05-25T01:11:58.167Z,13.97
2019-05-25T01:14:28.891Z,14.17
2019-05-25T01:16:59.457Z,15.23
2019-05-25T01:19:30.075Z,12.73
2019-05-25T01:22:00.771Z,13.07
2019-05-25T01:24:43.996Z,13.33
2019-05-25T01:27:03.608Z,13.53
2019-05-25T01:29:34.171Z,15.03
2019-05-25T01:32:04.746Z,15.83
2019-05-25T01:34:35.274Z,12.87
2019-05-25T01:37:05.982Z,17.17
2019-05-25T01:39:36.739Z,13.63
2019-05-25T01:42:07.630Z,15.03
2019-05-25T01:44:38.231Z,14.13
2019-05-25T01:47:08.729Z,17.93
2019-05-25T01:49:39.281Z,14.57
2019-05-25T01:52:09.706Z,14.63
2019-05-25T01:54:40.386Z,15.30
2019-05-25T01:57:10.986Z,16.90
2019-05-25T01:59:41.637Z,12.70
2019-05-25T02:02:12.228Z,13.87
2019-05-25T02:04:43.001Z,12.87
2019-05-25T02:07:13.506Z,12.20
2019-05-25T02:09:44.368Z,13.80
2019-05-25T02:12:14.880Z,12.53
2019-05-25T02:14:45.575Z,19.77
2019-05-25T02:17:17.058Z,18.37
2019-05-25T02:19:47.608Z,14.93
2019-05-25T02:22:18.462Z,13.23
2019-05-25T02:24:48.942Z,14.93
2019-05-25T02:27:19.706Z,14.03
2019-05-25T02:29:50.266Z,12.07
2019-05-25T02:32:21.392Z,10.77
2019-05-25T02:34:52.186Z,14.90
2019-05-25T02:37:22.937Z,11.20
2019-05-25T02:39:53.553Z,14.07
2019-05-25T02:42:24.210Z,10.60
2019-05-25T02:44:55.087Z,15.90
2019-05-25T02:47:25.611Z,13.53
2019-05-25T02:49:56.342Z,15.57
2019-05-25T02:52:26.924Z,10.03
2019-05-25T02:54:57.632Z,10.93
2019-05-25T02:57:28.077Z,12.23
2019-05-25T02:59:58.752Z,14.57
2019-05-25T03:02:29.191Z,14.10
2019-05-25T03:05:01.115Z,12.97
2019-05-25T03:07:32.921Z,15.40
2019-05-25T03:10:04.909Z,12.10
2019-05-25T03:12:35.475Z,13.07
2019-05-25T03:15:07.371Z,16.00
2019-05-25T03:17:38.184Z,15.73
2019-05-25T03:20:09.609Z,18.77
2019-05-25T03:22:40.096Z,22.23
2019-05-25T03:25:11.058Z,22.00
2019-05-25T03:27:41.680Z,26.83
2019-05-25T03:30:12.925Z,22.13
2019-05-25T03:32:43.630Z,17.53
2019-05-25T03:35:14.696Z,11.67
2019-05-25T03:37:45.307Z,14.03
2019-05-25T03:40:15.794Z,16.40
2019-05-25T03:42:46.326Z,12.93
2019-05-25T03:45:16.809Z,11.27
2019-05-25T03:47:47.530Z,12.17
2019-05-25T03:50:18.428Z,10.63
2019-05-25T03:52:48.898Z,11.53
2019-05-25T03:55:19.351Z,15.50
2019-05-25T03:57:50.098Z,12.10
2019-05-25T04:00:31.446Z,15.83
2019-05-25T04:03:02.055Z,17.40
2019-05-25T04:05:32.722Z,11.43
2019-05-25T04:08:03.447Z,11.13
2019-05-25T04:10:33.870Z,13.03
2019-05-25T04:13:04.297Z,13.37
2019-05-25T04:15:34.739Z,15.80
2019-05-25T04:18:05.538Z,14.27
2019-05-25T04:20:37.083Z,13.07
2019-05-25T04:23:07.815Z,11.40
2019-05-25T04:25:38.361Z,12.67
2019-05-25T04:28:09.116Z,10.80
2019-05-25T04:30:40.132Z,15.73
2019-05-25T04:33:10.670Z,11.83
2019-05-25T04:35:41.151Z,12.97
2019-05-25T04:38:11.732Z,13.50
2019-05-25T04:40:42.167Z,13.07
2019-05-25T04:43:12.595Z,13.93
2019-05-25T04:45:44.209Z,11.20
2019-05-25T04:48:14.663Z,13.33
2019-05-25T04:50:45.088Z,12.93
2019-05-25T04:53:15.466Z,14.50
2019-05-25T04:55:46.159Z,13.57
2019-05-25T04:58:16.627Z,12.00
2019-05-25T05:00:47.289Z,12.93
2019-05-25T05:03:17.733Z,14.20
2019-05-25T05:05:48.187Z,12.00
2019-05-25T05:08:18.596Z,11.23
2019-05-25T05:10:49.240Z,14.47
2019-05-25T05:13:20.734Z,9.93
2019-05-25T05:15:51.386Z,13.43
2019-05-25T05:18:21.904Z,10.33
2019-05-25T05:20:52.332Z,12.13
2019-05-25T05:23:22.958Z,10.87
2019-05-25T05:25:53.378Z,13.47
2019-05-25T05:28:23.944Z,10.47
2019-05-25T05:30:54.622Z,9.03
2019-05-25T05:33:25.313Z,9.33
2019-05-25T05:35:57.152Z,12.97
2019-05-25T05:38:28.848Z,8.37
2019-05-25T05:41:00.316Z,9.97
2019-05-25T05:43:32.346Z,8.57
2019-05-25T05:46:04.917Z,9.27
2019-05-25T05:48:37.962Z,5.93
2019-05-25T05:51:10.765Z,5.57
2019-05-25T05:53:43.711Z,5.67
2019-05-25T05:56:15.099Z,6.50
2019-05-25T05:58:45.590Z,8.50
2019-05-25T06:01:16.011Z,5.23
2019-05-25T06:03:46.606Z,5.30
2019-05-25T06:06:17.021Z,7.70
2019-05-25T06:08:47.437Z,10.70
2019-05-25T06:11:17.973Z,5.20
2019-05-25T06:13:48.421Z,5.87
2019-05-25T06:16:19.098Z,7.60
2019-05-25T06:18:49.886Z,6.93
2019-05-25T06:21:20.433Z,7.17
2019-05-25T06:23:54.166Z,6.53
2019-05-25T06:26:24.699Z,9.10
2019-05-25T06:28:56.400Z,7.03
2019-05-25T06:31:26.834Z,5.13
2019-05-25T06:33:57.254Z,8.53
2019-05-25T06:36:28.116Z,6.80
2019-05-25T06:38:58.548Z,7.33
2019-05-25T06:41:35.190Z,6.90
2019-05-25T06:44:06.335Z,5.20
2019-05-25T06:46:39.631Z,5.33
2019-05-25T06:49:09.026Z,5.50
2019-05-25T06:51:39.560Z,8.27
2019-05-25T06:54:10.030Z,5.47
2019-05-25T06:56:40.465Z,6.27
2019-05-25T06:59:11.174Z,9.37
2019-05-25T07:01:41.775Z,5.83
2019-05-25T07:04:12.395Z,7.03
2019-05-25T07:06:43.070Z,6.60
2019-05-25T07:09:13.973Z,12.47
2019-05-25T07:11:44.477Z,8.37
2019-05-25T07:14:15.339Z,4.93
2019-05-25T07:16:45.749Z,6.53
2019-05-25T07:19:16.249Z,4.43
2019-05-25T07:21:46.752Z,4.33
2019-05-25T07:24:17.471Z,3.93
2019-05-25T07:26:47.901Z,3.90
2019-05-25T07:29:19.220Z,2.97
2019-05-25T07:31:50.129Z,3.27
2019-05-25T07:34:21.098Z,7.17
2019-05-25T07:36:51.932Z,2.83
2019-05-25T07:39:22.450Z,2.80
2019-05-25T07:41:52.918Z,2.20
2019-05-25T07:44:23.453Z,2.03
2019-05-25T07:46:54.032Z,8.33
2019-05-25T07:49:24.850Z,4.53
2019-05-25T07:51:55.351Z,3.13
2019-05-25T07:54:26.059Z,2.63
2019-05-25T07:56:56.673Z,4.83
2019-05-25T07:59:27.072Z,4.83
2019-05-25T08:01:57.694Z,3.00
2019-05-25T08:04:28.261Z,3.40
2019-05-25T08:06:58.710Z,3.77
2019-05-25T08:09:29.166Z,5.03
2019-05-25T08:11:59.959Z,2.43
2019-05-25T08:14:30.577Z,2.83
2019-05-25T08:17:01.466Z,4.67
2019-05-25T08:19:31.914Z,4.63
2019-05-25T08:22:02.566Z,3.53
2019-05-25T08:24:33.130Z,3.87
2019-05-25T08:27:03.724Z,4.40
2019-05-25T08:29:38.118Z,2.77
2019-05-25T08:32:09.185Z,2.70
2019-05-25T08:34:39.669Z,6.37
2019-05-25T08:37:10.366Z,2.53
2019-05-25T08:39:40.818Z,8.63
2019-05-25T08:42:11.345Z,4.83
2019-05-25T08:44:42.065Z,6.00
2019-05-25T08:47:12.652Z,3.90
2019-05-25T08:49:43.102Z,3.40
2019-05-25T08:52:13.691Z,7.03
2019-05-25T08:54:44.115Z,5.17
2019-05-25T08:57:18.482Z,3.43
2019-05-25T08:59:46.610Z,2.60
2019-05-25T09:02:17.159Z,4.43
2019-05-25T09:04:47.869Z,3.40
2019-05-25T09:07:18.607Z,5.13
2019-05-25T09:09:49.028Z,6.30
2019-05-25T09:12:19.543Z,3.33
2019-05-25T09:14:50.273Z,2.83
2019-05-25T09:17:20.773Z,3.00
2019-05-25T09:19:51.606Z,3.53
2019-05-25T09:22:22.152Z,3.83
2019-05-25T09:24:53.799Z,4.33
2019-05-25T09:27:24.221Z,4.67
2019-05-25T09:29:54.713Z,4.63
2019-05-25T09:32:25.325Z,3.67
2019-05-25T09:34:55.834Z,4.13
2019-05-25T09:37:26.422Z,3.33
2019-05-25T09:39:57.294Z,3.70
2019-05-25T09:42:28.102Z,5.93
2019-05-25T09:44:58.879Z,5.57
2019-05-25T09:47:29.524Z,4.97
2019-05-25T09:50:00.231Z,4.47
2019-05-25T09:52:31.149Z,3.80
2019-05-25T09:55:01.700Z,2.50
2019-05-25T09:57:32.360Z,3.87
2019-05-25T10:00:04.380Z,3.40
2019-05-25T10:02:34.942Z,5.03
2019-05-25T10:05:06.135Z,5.00
2019-05-25T10:07:36.758Z,10.03
2019-05-25T10:10:07.826Z,3.93
2019-05-25T10:12:38.417Z,5.93
2019-05-25T10:15:09.533Z,3.90
2019-05-25T10:17:40.163Z,3.83
2019-05-25T10:20:10.985Z,2.93
2019-05-25T10:22:41.654Z,4.33
2019-05-25T10:25:12.894Z,3.93
2019-05-25T10:27:43.527Z,4.53
2019-05-25T10:30:14.208Z,4.43
2019-05-25T10:32:44.873Z,3.57
2019-05-25T10:35:16.400Z,3.43
2019-05-25T10:37:47.119Z,2.70
2019-05-25T10:40:17.932Z,2.83
2019-05-25T10:42:48.788Z,5.17
2019-05-25T10:45:19.623Z,6.70
2019-05-25T10:47:50.030Z,4.93
2019-05-25T10:50:22.057Z,7.30
2019-05-25T10:52:52.509Z,2.67
2019-05-25T10:55:22.909Z,5.00
2019-05-25T10:57:53.766Z,2.90
2019-05-25T11:00:24.857Z,3.20
2019-05-25T11:02:55.469Z,4.67
2019-05-25T11:05:26.015Z,5.40
2019-05-25T11:07:56.563Z,7.53
2019-05-25T11:10:26.922Z,4.70
2019-05-25T11:12:57.784Z,3.27
2019-05-25T11:15:28.443Z,4.40
2019-05-25T11:17:59.145Z,7.43
2019-05-25T11:20:29.577Z,4.67
2019-05-25T11:23:00.313Z,5.73
2019-05-25T11:25:30.916Z,3.33
2019-05-25T11:28:01.423Z,4.60
2019-05-25T11:30:32.091Z,6.07
2019-05-25T11:33:02.690Z,5.40
2019-05-25T11:35:34.313Z,3.20
2019-05-25T11:38:04.757Z,3.83
2019-05-25T11:40:35.201Z,3.00
2019-05-25T11:43:06.019Z,6.60
2019-05-25T11:45:36.725Z,6.23
2019-05-25T11:48:07.543Z,6.60
2019-05-25T11:50:38.175Z,5.43
2019-05-25T11:53:09.446Z,6.43
2019-05-25T11:55:40.103Z,5.80
2019-05-25T11:58:10.848Z,4.10
2019-05-25T12:00:41.462Z,6.30
2019-05-25T12:03:11.997Z,5.20
2019-05-25T12:05:42.768Z,4.90
2019-05-25T12:08:13.299Z,3.73
2019-05-25T12:10:44.120Z,3.60
2019-05-25T12:13:14.663Z,2.50
2019-05-25T12:15:45.329Z,6.37
2019-05-25T12:18:15.937Z,3.97
2019-05-25T12:20:46.877Z,2.67
2019-05-25T12:23:17.325Z,4.83
2019-05-25T12:25:48.145Z,4.63
2019-05-25T12:28:18.813Z,3.23
2019-05-25T12:30:57.323Z,2.43
2019-05-25T12:33:27.890Z,2.83
2019-05-25T12:35:58.648Z,3.97
2019-05-25T12:38:29.055Z,3.80
2019-05-25T12:40:59.766Z,3.40
2019-05-25T12:43:30.310Z,6.83
2019-05-25T12:46:01.008Z,4.93
2019-05-25T12:48:31.861Z,3.40
2019-05-25T12:51:02.722Z,3.93
2019-05-25T12:53:33.467Z,5.50
2019-05-25T12:56:04.097Z,7.03
2019-05-25T12:58:34.524Z,10.30
2019-05-25T13:01:05.356Z,7.47
2019-05-25T13:03:35.836Z,11.47
2019-05-25T13:06:06.619Z,4.83
2019-05-25T13:08:37.144Z,6.00
2019-05-25T13:11:09.624Z,6.10
2019-05-25T13:13:39.931Z,7.50
2019-05-25T13:16:10.741Z,7.27
2019-05-25T13:18:41.302Z,4.57
2019-05-25T13:21:11.905Z,3.30
2019-05-25T13:23:42.624Z,6.10
2019-05-25T13:26:13.248Z,6.17
2019-05-25T13:28:43.978Z,3.90
2019-05-25T13:31:14.565Z,5.37
2019-05-25T13:33:45.117Z,8.03
2019-05-25T13:36:15.531Z,21.83
2019-05-25T13:38:46.095Z,9.83
2019-05-25T13:41:16.615Z,9.70
2019-05-25T13:43:49.975Z,12.87
2019-05-25T13:46:19.139Z,8.80
2019-05-25T13:48:49.903Z,5.97
2019-05-25T13:51:20.399Z,5.90
2019-05-25T13:53:50.888Z,20.43
2019-05-25T13:56:21.698Z,33.97
2019-05-25T13:58:52.374Z,35.00
2019-05-25T14:01:28.278Z,7.27
2019-05-25T14:03:55.830Z,7.23
2019-05-25T14:06:26.751Z,8.20
2019-05-25T14:08:57.383Z,8.43
2019-05-25T14:11:27.814Z,11.30
2019-05-25T14:13:58.546Z,12.65
2019-05-25T14:16:28.994Z,7.58
2019-05-25T14:18:59.512Z,4.80
2019-05-25T14:21:31.580Z,7.97
2019-05-25T14:24:02.273Z,7.53
2019-05-25T14:26:32.788Z,4.67
2019-05-25T14:29:03.215Z,6.37
2019-05-25T14:31:45.156Z,11.28
2019-05-25T14:34:06.180Z,8.00
2019-05-25T14:36:36.712Z,4.50
2019-05-25T14:39:08.696Z,5.08
2019-05-25T14:41:39.488Z,7.92
2019-05-25T14:44:09.918Z,9.98
2019-05-25T14:46:40.521Z,3.50
2019-05-25T14:49:11.226Z,5.90
2019-05-25T14:51:41.681Z,7.87
2019-05-25T14:54:12.547Z,7.70
2019-05-25T14:56:43.237Z,5.55
2019-05-25T14:59:13.901Z,5.45
2019-05-25T15:01:59.604Z,6.33
2019-05-25T15:04:16.767Z,6.35
2019-05-25T15:06:47.367Z,9.80
2019-05-25T15:09:18.043Z,4.28
2019-05-25T15:11:49.006Z,4.35
2019-05-25T15:14:21.128Z,13.58
2019-05-25T15:16:51.899Z,22.73
2019-05-25T15:19:22.414Z,19.50
2019-05-25T15:21:53.309Z,18.10
2019-05-25T15:24:23.984Z,5.33
2019-05-25T15:26:54.737Z,4.60
2019-05-25T15:29:25.309Z,5.70
2019-05-25T15:31:56.017Z,4.63
2019-05-25T15:34:26.702Z,7.20
2019-05-25T15:36:57.216Z,3.03
2019-05-25T15:39:28.830Z,4.50
2019-05-25T15:42:00.075Z,5.77
2019-05-25T15:44:30.858Z,1.67
2019-05-25T15:47:04.698Z,2.80
2019-05-25T15:49:33.933Z,7.23
2019-05-25T15:52:05.996Z,3.77
2019-05-25T15:54:37.025Z,4.58
2019-05-25T15:57:07.884Z,4.08
2019-05-25T15:59:38.532Z,5.27
2019-05-25T16:02:09.055Z,4.50
2019-05-25T16:04:39.681Z,3.23
2019-05-25T16:07:10.657Z,4.43
2019-05-25T16:09:41.415Z,2.00
2019-05-25T16:12:12.041Z,3.03
2019-05-25T16:14:43.004Z,2.60
2019-05-25T16:17:13.671Z,5.97
2019-05-25T16:19:44.569Z,7.67
2019-05-25T16:22:15.121Z,2.60
2019-05-25T16:24:45.875Z,6.80
2019-05-25T16:27:16.397Z,5.73
2019-05-25T16:29:47.160Z,2.87
2019-05-25T16:32:17.738Z,3.40
2019-05-25T16:34:48.423Z,10.63
2019-05-25T16:37:19.063Z,9.23
2019-05-25T16:39:49.955Z,6.67
2019-05-25T16:42:24.082Z,4.37
2019-05-25T16:44:55.084Z,4.30
2019-05-25T16:47:26.073Z,8.50
2019-05-25T16:49:57.604Z,3.87
2019-05-25T16:52:28.855Z,8.73
2019-05-25T16:54:59.987Z,4.60
2019-05-25T16:57:32.942Z,2.50
2019-05-25T17:00:04.691Z,2.97
2019-05-25T17:02:36.439Z,4.90
2019-05-25T17:05:07.900Z,5.77
2019-05-25T17:07:39.242Z,6.30
2019-05-25T17:10:11.304Z,5.27
2019-05-25T17:12:42.018Z,5.37
2019-05-25T17:15:12.706Z,4.73
2019-05-25T17:17:43.774Z,6.77
2019-05-25T17:20:14.786Z,9.57
2019-05-25T17:22:47.304Z,6.33
2019-05-25T17:25:18.540Z,7.77
2019-05-25T17:27:49.379Z,6.93
2019-05-25T17:30:39.410Z,5.17
2019-05-25T17:33:09.938Z,2.40
2019-05-25T17:35:40.712Z,4.53
2019-05-25T17:38:11.141Z,7.13
2019-05-25T17:40:41.863Z,4.23
2019-05-25T17:43:12.528Z,3.77
2019-05-25T17:45:43.153Z,8.27
2019-05-25T17:48:14.185Z,6.13
2019-05-25T17:50:44.731Z,5.43
2019-05-25T17:53:15.193Z,5.77
2019-05-25T17:55:45.829Z,4.80
2019-05-25T17:58:16.569Z,7.33
2019-05-25T18:00:50.387Z,8.17
2019-05-25T18:03:21.083Z,8.17
2019-05-25T18:05:51.572Z,4.53
2019-05-25T18:08:22.097Z,4.50
2019-05-25T18:10:54.478Z,3.77
2019-05-25T18:13:28.694Z,4.10
2019-05-25T18:15:57.265Z,5.17
2019-05-25T18:18:27.662Z,4.17
2019-05-25T18:20:58.370Z,4.80
2019-05-25T18:23:28.920Z,4.60
2019-05-25T18:25:59.541Z,5.93
2019-05-25T18:28:30.339Z,3.03
2019-05-25T18:31:02.044Z,7.97
2019-05-25T18:33:32.612Z,5.43
2019-05-25T18:36:03.202Z,2.63
2019-05-25T18:38:33.768Z,6.83
2019-05-25T18:41:04.609Z,6.43
2019-05-25T18:43:35.035Z,4.80
2019-05-25T18:46:06.546Z,5.60
2019-05-25T18:48:36.978Z,8.30
2019-05-25T18:51:07.954Z,3.37
2019-05-25T18:53:38.791Z,5.43
2019-05-25T18:56:09.390Z,9.67
2019-05-25T18:58:40.186Z,8.03
2019-05-25T19:01:10.638Z,8.20
2019-05-25T19:03:41.239Z,4.80
2019-05-25T19:06:11.712Z,7.37
2019-05-25T19:08:42.474Z,5.03
2019-05-25T19:11:12.882Z,8.50
2019-05-25T19:13:43.388Z,10.03
2019-05-25T19:16:13.780Z,8.27
2019-05-25T19:18:44.478Z,8.93
2019-05-25T19:21:15.337Z,11.17
2019-05-25T19:23:46.129Z,12.10
2019-05-25T19:26:16.823Z,9.33
2019-05-25T19:28:47.507Z,8.73
2019-05-25T19:31:18.129Z,10.37
2019-05-25T19:33:48.980Z,9.63
2019-05-25T19:36:19.573Z,8.13
2019-05-25T19:38:50.487Z,9.93
2019-05-25T19:41:21.082Z,11.03
2019-05-25T19:43:51.704Z,7.33
2019-05-25T19:46:22.336Z,7.13
2019-05-25T19:48:53.374Z,7.67
2019-05-25T19:51:24.167Z,10.07
2019-05-25T19:53:55.050Z,8.37
2019-05-25T19:56:25.570Z,7.27
2019-05-25T19:58:56.198Z,6.97
2019-05-25T20:01:26.880Z,5.33
2019-05-25T20:03:57.675Z,7.07
2019-05-25T20:06:28.317Z,5.37
2019-05-25T20:08:58.942Z,7.73
2019-05-25T20:11:29.506Z,7.37
2019-05-25T20:14:00.149Z,9.67
2019-05-25T20:16:30.729Z,4.27
2019-05-25T20:19:01.222Z,4.90
2019-05-25T20:21:32.270Z,6.87
2019-05-25T20:24:02.839Z,6.60
2019-05-25T20:26:33.454Z,7.83
2019-05-25T20:29:04.360Z,5.10
2019-05-25T20:31:35.036Z,6.53
2019-05-25T20:34:05.529Z,4.53
2019-05-25T20:36:36.238Z,7.00
2019-05-25T20:39:07.919Z,6.93
2019-05-25T20:41:38.695Z,6.03
2019-05-25T20:44:09.232Z,8.23
2019-05-25T20:46:40.049Z,11.60
2019-05-25T20:49:10.764Z,8.73
2019-05-25T20:51:41.342Z,10.00
2019-05-25T20:54:11.880Z,8.30
2019-05-25T20:56:42.391Z,7.00
2019-05-25T20:59:13.135Z,7.97
2019-05-25T21:01:43.602Z,6.70
2019-05-25T21:04:14.210Z,8.30
2019-05-25T21:06:44.771Z,11.37
2019-05-25T21:09:15.354Z,8.27
2019-05-25T21:11:47.020Z,7.43
2019-05-25T21:14:17.687Z,12.50
2019-05-25T21:16:48.283Z,8.27
2019-05-25T21:19:18.738Z,8.97
2019-05-25T21:21:50.702Z,10.20
2019-05-25T21:24:21.220Z,7.93
2019-05-25T21:26:51.835Z,8.97
2019-05-25T21:29:22.430Z,6.87
2019-05-25T21:31:53.002Z,7.23
2019-05-25T21:34:23.764Z,7.03
2019-05-25T21:36:54.161Z,8.53
2019-05-25T21:39:25.102Z,8.40
2019-05-25T21:41:55.762Z,7.50
2019-05-25T21:44:26.210Z,8.67
2019-05-25T21:46:57.014Z,7.33
2019-05-25T21:49:27.438Z,8.17
2019-05-25T21:51:58.073Z,8.27
2019-05-25T21:54:28.674Z,8.30
2019-05-25T21:56:59.242Z,7.07
2019-05-25T21:59:32.588Z,7.93
2019-05-25T22:02:02.104Z,5.83
2019-05-25T22:04:32.610Z,10.40
2019-05-25T22:07:03.515Z,10.03
2019-05-25T22:09:33.946Z,9.50
2019-05-25T22:12:04.375Z,5.33
2019-05-25T22:14:35.012Z,6.57
2019-05-25T22:17:05.894Z,7.70
2019-05-25T22:19:36.369Z,9.37
2019-05-25T22:22:07.162Z,5.77
2019-05-25T22:24:37.711Z,12.17
2019-05-25T22:27:08.207Z,8.50
2019-05-25T22:29:38.681Z,9.57
2019-05-25T22:32:09.119Z,7.00
2019-05-25T22:34:39.748Z,12.73
2019-05-25T22:37:10.337Z,6.47
2019-05-25T22:39:40.899Z,8.63
2019-05-25T22:42:11.533Z,14.60
2019-05-25T22:44:42.065Z,10.27
2019-05-25T22:47:12.959Z,15.50
2019-05-25T22:49:43.392Z,14.63
2019-05-25T22:52:13.911Z,14.70
2019-05-25T22:54:44.385Z,19.73
2019-05-25T22:57:15.020Z,12.47
2019-05-25T22:59:45.409Z,19.27
2019-05-25T23:02:15.952Z,16.07
2019-05-25T23:04:46.483Z,15.57
2019-05-25T23:07:17.009Z,13.33
2019-05-25T23:09:47.494Z,15.27
2019-05-25T23:12:18.315Z,14.93
2019-05-25T23:14:49.776Z,13.77
2019-05-25T23:17:20.640Z,12.00
2019-05-25T23:19:51.017Z,13.03
2019-05-25T23:22:21.813Z,15.07
2019-05-25T23:24:52.582Z,12.53
2019-05-25T23:27:23.384Z,10.00
2019-05-25T23:29:54.004Z,13.10
2019-05-25T23:32:24.732Z,14.07
2019-05-25T23:34:55.839Z,13.30
2019-05-25T23:37:26.394Z,14.13
2019-05-25T23:39:56.881Z,15.70
2019-05-25T23:42:27.579Z,18.93
2019-05-25T23:44:58.231Z,16.57
2019-05-25T23:47:28.914Z,14.57
2019-05-25T23:50:00.706Z,13.13
2019-05-25T23:52:31.231Z,14.57
2019-05-25T23:55:04.936Z,14.50
2019-05-25T23:57:33.933Z,11.90
